Hlavní strana
METAR-TAF:

METAR-TAF

Letiště :

Aiken, Jižní Karolína, Spojené státy americké

zeměpisná šířka: 33-38-58N, zeměpisná délka: 081-41-06W, výška: 161 m

Aktuální stav počasí

Zpráva byla vytvořena před 17 minutami, v 06:35 UTC
Jižní vítr 4 kt
Teplota 15°C
Vlhkost vzduchu 100%
Tlak 1020 hPa
Viditelnost: 11.3 km
Polojasno ve výšce 5000 ft
Polojasno ve výšce 6500 ft
Zataženo ve výšce 8000 ft
slabý déšť

METAR: KAIK 190635Z AUTO 17004KT 7SM -RA SCT050 SCT065 OVC080 15/15 A3011 RMK AO2 P0001 T01500148

Čas: 01:52 (06:52 UTC)


TAF: chybějící

Stav a předpovědi počasí z více než 4 000 letišť (zprávy METAR a TAF).

Červené a žluté tečky na mapě představují dostupné meteorologické stanice.

Když kurzor umístíte na tečku, zobrazí se název stanice.

Pak kliknutím zobrazíte stav a předpověď počasí.

Chcete-li změnit mapu, kliknutím na zelené tlačítko se znaménkem +mapu přiblížíte, kliknutím na zelené tlačítko se znaménkem – mapu oddálíte a kliknutím na zelené šipky přejdete na sousední mapy.


METAR-TAF: